createdAt,value
2024-05-09T00:00:46.502Z,14.02
2024-05-09T00:03:14.208Z,15.50
2024-05-09T00:05:42.725Z,14.80
2024-05-09T00:08:11.390Z,14.82
2024-05-09T00:10:40.523Z,14.55
2024-05-09T00:13:10.189Z,14.43
2024-05-09T00:15:38.444Z,15.23
2024-05-09T00:18:07.663Z,14.73
2024-05-09T00:20:39.738Z,14.88
2024-05-09T00:23:11.641Z,14.20
2024-05-09T00:25:40.735Z,15.52
2024-05-09T00:28:07.962Z,15.05
2024-05-09T00:30:36.939Z,15.18
2024-05-09T00:33:07.484Z,15.55
2024-05-09T00:35:36.351Z,15.23
2024-05-09T00:38:04.216Z,15.75
2024-05-09T00:40:40.137Z,14.68
2024-05-09T00:43:10.702Z,15.95
2024-05-09T00:45:38.275Z,14.00
2024-05-09T00:48:08.931Z,15.02
2024-05-09T00:50:41.026Z,15.65
2024-05-09T00:53:11.865Z,15.30
2024-05-09T00:55:40.298Z,15.73
2024-05-09T00:58:09.979Z,16.02
2024-05-09T01:00:40.064Z,16.48
2024-05-09T01:03:11.987Z,16.25
2024-05-09T01:05:41.474Z,15.90
2024-05-09T01:08:10.804Z,15.25
2024-05-09T01:10:39.495Z,14.93
2024-05-09T01:13:07.887Z,14.25
2024-05-09T01:15:35.816Z,15.75
2024-05-09T01:18:09.996Z,15.07
2024-05-09T01:23:14.408Z,15.70
2024-05-09T01:25:44.354Z,15.23
2024-05-09T01:28:12.150Z,13.95
2024-05-09T01:30:39.483Z,13.52
2024-05-09T01:33:09.205Z,13.40
2024-05-09T01:35:39.255Z,13.95
2024-05-09T01:38:07.991Z,13.00
2024-05-09T01:40:38.838Z,15.25
2024-05-09T01:43:09.236Z,13.88
2024-05-09T01:45:38.010Z,13.57
2024-05-09T01:48:06.115Z,15.05
2024-05-09T01:50:38.979Z,15.63
2024-05-09T01:53:10.355Z,17.70
2024-05-09T01:55:38.335Z,16.67
2024-05-09T01:58:06.174Z,18.60
2024-05-09T02:00:39.359Z,18.35
2024-05-09T02:03:13.488Z,18.58
2024-05-09T02:05:44.490Z,18.08
2024-05-09T02:08:17.476Z,18.75
2024-05-09T02:10:45.963Z,18.02
2024-05-09T02:13:14.145Z,17.70
2024-05-09T02:15:42.318Z,17.25
2024-05-09T02:18:10.586Z,16.27
2024-05-09T02:20:40.885Z,18.13
2024-05-09T02:23:09.562Z,15.45
2024-05-09T02:25:37.112Z,16.95
2024-05-09T02:28:04.558Z,18.15
2024-05-09T02:30:39.415Z,17.38
2024-05-09T02:33:12.096Z,18.90
2024-05-09T02:35:41.878Z,17.70
2024-05-09T02:38:10.131Z,17.75
2024-05-09T02:40:39.435Z,18.45
2024-05-09T02:43:10.049Z,16.63
2024-05-09T02:45:39.340Z,16.73
2024-05-09T02:48:07.484Z,16.65
2024-05-09T02:50:39.114Z,15.00
2024-05-09T02:53:09.315Z,15.48
2024-05-09T02:55:38.925Z,14.68
2024-05-09T02:58:07.678Z,14.93
2024-05-09T03:00:39.423Z,14.98
2024-05-09T03:03:11.134Z,13.57
2024-05-09T03:05:40.987Z,14.27
2024-05-09T03:08:08.716Z,14.10
2024-05-09T03:10:38.520Z,14.70
2024-05-09T03:13:07.903Z,13.55
2024-05-09T03:15:35.465Z,14.25
2024-05-09T03:18:03.693Z,13.77
2024-05-09T03:20:34.826Z,13.77
2024-05-09T03:23:05.000Z,12.85
2024-05-09T03:25:32.801Z,13.85
2024-05-09T03:28:00.173Z,14.00
2024-05-09T03:30:38.976Z,13.88
2024-05-09T03:33:13.172Z,12.88
2024-05-09T03:35:42.062Z,13.65
2024-05-09T03:38:09.774Z,12.88
2024-05-09T03:40:44.011Z,12.85
2024-05-09T03:43:11.453Z,13.50
2024-05-09T03:45:38.674Z,11.80
2024-05-09T03:48:06.778Z,13.00
2024-05-09T03:50:35.999Z,13.13
2024-05-09T03:53:04.689Z,12.80
2024-05-09T03:55:32.350Z,13.52
2024-05-09T03:57:59.960Z,12.43
2024-05-09T04:00:35.432Z,13.65
2024-05-09T04:03:09.051Z,13.52
2024-05-09T04:05:41.306Z,13.05
2024-05-09T04:08:10.706Z,12.32
2024-05-09T04:10:38.493Z,12.93
2024-05-09T04:13:05.900Z,12.27
2024-05-09T04:15:33.239Z,12.18
2024-05-09T04:18:01.827Z,12.88
2024-05-09T04:20:37.560Z,11.57
2024-05-09T04:23:08.898Z,12.57
2024-05-09T04:25:37.248Z,13.93
2024-05-09T04:28:05.448Z,12.70
2024-05-09T04:30:38.336Z,11.05
2024-05-09T04:33:11.314Z,11.57
2024-05-09T04:35:42.691Z,10.85
2024-05-09T04:38:10.581Z,11.07
2024-05-09T04:40:38.351Z,11.52
2024-05-09T04:43:06.875Z,11.68
2024-05-09T04:45:34.950Z,11.05
2024-05-09T04:48:03.036Z,11.52
2024-05-09T04:50:36.763Z,11.50
2024-05-09T04:53:10.062Z,10.82
2024-05-09T04:55:39.893Z,9.40
2024-05-09T04:58:09.478Z,10.75
2024-05-09T05:00:39.026Z,10.48
2024-05-09T05:03:12.951Z,11.48
2024-05-09T05:05:44.104Z,12.82
2024-05-09T05:08:14.096Z,11.15
2024-05-09T05:10:42.775Z,10.77
2024-05-09T05:13:21.230Z,11.23
2024-05-09T05:15:50.374Z,11.02
2024-05-09T05:18:18.618Z,10.60
2024-05-09T05:20:46.405Z,10.32
2024-05-09T05:23:15.724Z,9.77
2024-05-09T05:25:43.911Z,9.93
2024-05-09T05:28:11.475Z,9.27
2024-05-09T05:30:41.433Z,9.38
2024-05-09T05:33:11.912Z,9.50
2024-05-09T05:35:40.549Z,8.60
2024-05-09T05:38:09.012Z,8.50
2024-05-09T05:40:38.455Z,9.00
2024-05-09T05:43:09.310Z,8.65
2024-05-09T05:45:37.423Z,8.68
2024-05-09T05:48:06.326Z,7.72
2024-05-09T05:50:37.238Z,7.72
2024-05-09T05:53:07.745Z,7.70
2024-05-09T05:55:36.959Z,7.40
2024-05-09T05:58:04.584Z,8.05
2024-05-09T06:03:02.543Z,6.03
2024-05-09T06:05:30.111Z,6.00
2024-05-09T06:07:57.497Z,6.07
2024-05-09T06:10:30.097Z,7.88
2024-05-09T06:13:05.658Z,7.00
2024-05-09T06:15:32.974Z,6.65
2024-05-09T06:18:00.676Z,7.20
2024-05-09T06:20:35.469Z,7.32
2024-05-09T06:23:06.751Z,6.40
2024-05-09T06:25:35.424Z,6.70
2024-05-09T06:28:03.547Z,6.68
2024-05-09T06:33:04.816Z,6.30
2024-05-09T06:35:32.694Z,6.72
2024-05-09T06:38:00.290Z,6.38
2024-05-09T06:40:36.224Z,7.10
2024-05-09T06:43:22.039Z,7.15
2024-05-09T06:45:53.263Z,7.90
2024-05-09T06:48:21.748Z,7.30
2024-05-09T06:50:50.388Z,7.95
2024-05-09T06:53:20.578Z,7.25
2024-05-09T06:55:48.105Z,7.40
2024-05-09T06:58:16.079Z,6.35
2024-05-09T07:00:43.494Z,6.30
2024-05-09T07:03:15.131Z,6.10
2024-05-09T07:05:45.841Z,5.80
2024-05-09T07:08:13.935Z,5.05
2024-05-09T07:10:41.560Z,5.40
2024-05-09T07:13:10.347Z,5.28
2024-05-09T07:15:39.070Z,5.28
2024-05-09T07:18:17.412Z,5.55
2024-05-09T07:20:47.023Z,5.63
2024-05-09T07:23:15.707Z,5.70
2024-05-09T07:25:43.496Z,5.93
2024-05-09T07:28:13.736Z,4.93
2024-05-09T07:30:41.467Z,4.03
2024-05-09T07:33:09.139Z,4.20
2024-05-09T07:35:36.742Z,4.05
2024-05-09T07:38:04.161Z,4.38
2024-05-09T07:40:36.180Z,4.28
2024-05-09T07:43:05.327Z,4.63
2024-05-09T07:52:23.804Z,3.80
2024-05-09T07:53:39.450Z,3.65
2024-05-09T07:56:11.419Z,4.18
2024-05-09T07:58:39.703Z,3.80
2024-05-09T08:01:07.194Z,2.35
2024-05-09T08:03:34.979Z,2.38
2024-05-09T08:06:02.400Z,2.40
2024-05-09T08:08:29.698Z,2.20
2024-05-09T08:10:57.843Z,2.35
2024-05-09T08:13:27.620Z,2.50
2024-05-09T08:15:55.486Z,2.58
2024-05-09T08:18:23.067Z,2.53
2024-05-09T08:20:52.297Z,2.55
2024-05-09T08:23:19.598Z,2.35
2024-05-09T08:25:47.014Z,2.65
2024-05-09T08:28:15.359Z,2.53
2024-05-09T08:30:43.505Z,2.22
2024-05-09T08:33:11.139Z,2.40
2024-05-09T08:35:38.509Z,3.22
2024-05-09T08:38:07.256Z,2.40
2024-05-09T08:40:37.458Z,2.25
2024-05-09T08:43:11.659Z,2.53
2024-05-09T08:45:44.342Z,2.10
2024-05-09T08:48:15.453Z,2.47
2024-05-09T08:50:45.239Z,2.40
2024-05-09T08:53:15.198Z,2.40
2024-05-09T08:55:44.199Z,2.45
2024-05-09T08:58:20.250Z,2.63
2024-05-09T09:00:48.913Z,2.90
2024-05-09T09:03:20.049Z,2.35
2024-05-09T09:05:58.671Z,2.50
2024-05-09T09:08:26.865Z,2.20
2024-05-09T09:10:57.966Z,2.38
2024-05-09T09:13:26.373Z,2.65
2024-05-09T09:15:57.925Z,2.40
2024-05-09T09:18:27.603Z,2.47
2024-05-09T09:20:55.646Z,2.20
2024-05-09T09:23:23.245Z,2.35
2024-05-09T09:25:50.954Z,2.40
2024-05-09T09:28:18.418Z,2.15
2024-05-09T09:30:46.406Z,2.28
2024-05-09T09:33:13.972Z,2.30
2024-05-09T09:35:42.824Z,2.40
2024-05-09T09:38:11.215Z,2.15
2024-05-09T09:40:46.842Z,2.25
2024-05-09T09:43:22.411Z,2.00
2024-05-09T09:45:53.129Z,2.40
2024-05-09T09:48:23.099Z,2.40
2024-05-09T09:50:52.972Z,2.28
2024-05-09T09:53:21.124Z,2.15
2024-05-09T09:55:48.814Z,2.20
2024-05-09T09:58:18.327Z,2.72
2024-05-09T10:00:46.177Z,2.55
2024-05-09T10:03:13.864Z,2.10
2024-05-09T10:05:45.071Z,2.55
2024-05-09T10:08:16.679Z,2.10
2024-05-09T10:10:47.992Z,2.35
2024-05-09T10:13:16.398Z,2.17
2024-05-09T10:15:46.090Z,2.10
2024-05-09T10:18:14.330Z,2.60
2024-05-09T10:20:45.252Z,2.22
2024-05-09T10:23:27.567Z,2.38
2024-05-09T10:25:59.971Z,2.40
2024-05-09T10:28:28.612Z,1.90
2024-05-09T10:31:08.564Z,2.40
2024-05-09T10:33:38.301Z,1.67
2024-05-09T10:36:12.943Z,2.10
2024-05-09T10:38:42.023Z,2.65
2024-05-09T10:41:09.691Z,2.03
2024-05-09T10:43:41.774Z,2.33
2024-05-09T10:46:10.578Z,2.30
2024-05-09T10:48:39.220Z,1.90
2024-05-09T10:51:06.966Z,1.90
2024-05-09T10:53:43.505Z,2.10
2024-05-09T10:56:13.270Z,2.20
2024-05-09T10:58:40.821Z,2.22
2024-05-09T11:01:10.195Z,2.20
2024-05-09T11:03:39.264Z,2.08
2024-05-09T11:06:08.267Z,2.22
2024-05-09T11:08:36.649Z,2.30
2024-05-09T11:11:08.163Z,2.28
2024-05-09T11:13:38.133Z,2.00
2024-05-09T11:16:15.827Z,1.90
2024-05-09T11:18:43.778Z,2.10
2024-05-09T11:21:14.005Z,2.28
2024-05-09T11:23:41.966Z,1.83
2024-05-09T11:26:11.144Z,1.75
2024-05-09T11:28:38.542Z,1.80
2024-05-09T11:31:08.888Z,2.50
2024-05-09T11:33:40.037Z,2.20
2024-05-09T11:36:09.591Z,1.92
2024-05-09T11:38:37.104Z,1.98
2024-05-09T11:41:05.721Z,2.33
2024-05-09T11:43:33.698Z,2.10
2024-05-09T11:46:03.646Z,1.95
2024-05-09T11:48:32.125Z,2.35
2024-05-09T11:50:59.655Z,2.10
2024-05-09T11:53:27.100Z,2.00
2024-05-09T11:55:54.520Z,1.90
2024-05-09T11:58:23.157Z,1.90
2024-05-09T12:00:50.752Z,1.90
2024-05-09T12:03:18.299Z,2.50
2024-05-09T12:05:45.830Z,2.10
2024-05-09T12:08:14.395Z,2.20
2024-05-09T12:10:42.185Z,2.33
2024-05-09T12:13:10.011Z,2.25
2024-05-09T12:15:38.452Z,2.00
2024-05-09T12:18:08.137Z,2.13
2024-05-09T12:20:38.842Z,2.00
2024-05-09T12:23:10.089Z,1.88
2024-05-09T12:25:39.749Z,1.80
2024-05-09T12:28:08.901Z,2.00
2024-05-09T12:30:40.309Z,1.83
2024-05-09T12:33:11.550Z,1.90
2024-05-09T12:35:41.789Z,1.65
2024-05-09T12:38:10.423Z,2.15
2024-05-09T12:40:39.095Z,2.03
2024-05-09T12:43:08.856Z,2.08
2024-05-09T12:45:37.917Z,2.10
2024-05-09T12:48:08.626Z,2.50
2024-05-09T12:50:37.293Z,2.10
2024-05-09T12:53:05.618Z,2.38
2024-05-09T12:55:40.661Z,1.98
2024-05-09T12:58:17.159Z,1.88
2024-05-09T13:00:45.712Z,2.00
2024-05-09T13:03:13.731Z,2.00
2024-05-09T13:05:41.828Z,1.95
2024-05-09T13:08:09.660Z,1.90
2024-05-09T13:10:37.370Z,1.90
2024-05-09T13:13:05.181Z,2.35
2024-05-09T13:15:35.115Z,2.42
2024-05-09T13:18:03.707Z,2.30
2024-05-09T13:20:34.510Z,2.00
2024-05-09T13:23:05.406Z,1.65
2024-05-09T13:25:35.023Z,2.00
2024-05-09T13:28:03.710Z,1.83
2024-05-09T13:30:39.238Z,1.80
2024-05-09T13:33:11.525Z,1.90
2024-05-09T13:35:45.468Z,2.30
2024-05-09T13:38:17.562Z,1.70
2024-05-09T13:40:45.598Z,1.77
2024-05-09T13:43:13.322Z,1.88
2024-05-09T13:45:40.854Z,1.80
2024-05-09T13:48:10.120Z,1.73
2024-05-09T13:50:38.257Z,1.80
2024-05-09T13:53:07.259Z,1.77
2024-05-09T13:55:38.623Z,2.10
2024-05-09T13:58:07.197Z,1.60
2024-05-09T14:00:44.274Z,1.50
2024-05-09T14:03:17.005Z,1.90
2024-05-09T14:05:46.147Z,1.77
2024-05-09T14:08:15.803Z,2.13
2024-05-09T14:10:46.619Z,1.83
2024-05-09T14:13:14.655Z,2.38
2024-05-09T14:15:42.009Z,1.75
2024-05-09T14:18:12.549Z,1.55
2024-05-09T14:20:41.900Z,2.10
2024-05-09T14:23:09.609Z,1.90
2024-05-09T14:25:42.041Z,1.60
2024-05-09T14:28:12.433Z,1.80
2024-05-09T14:30:40.648Z,2.00
2024-05-09T14:33:09.053Z,1.45
2024-05-09T14:35:38.910Z,1.60
2024-05-09T14:38:07.707Z,1.70
2024-05-09T14:40:42.097Z,1.70
2024-05-09T14:43:14.462Z,1.98
2024-05-09T14:45:43.348Z,1.70
2024-05-09T14:48:15.120Z,1.75
2024-05-09T14:50:42.817Z,2.00
2024-05-09T14:53:11.657Z,1.80
2024-05-09T14:55:41.725Z,2.00
2024-05-09T14:58:12.158Z,1.80
2024-05-09T15:00:46.127Z,1.92
2024-05-09T15:03:18.542Z,2.08
2024-05-09T15:05:47.413Z,1.92
2024-05-09T15:08:16.634Z,1.88
2024-05-09T15:10:44.489Z,1.80
2024-05-09T15:13:14.325Z,2.15
2024-05-09T15:15:43.981Z,2.28
2024-05-09T15:18:11.757Z,1.83
2024-05-09T15:20:40.729Z,2.03
2024-05-09T15:23:08.508Z,2.03
2024-05-09T15:25:36.910Z,2.03
2024-05-09T15:28:07.823Z,1.85
2024-05-09T15:30:36.382Z,1.80
2024-05-09T15:33:05.195Z,1.90
2024-05-09T15:35:34.428Z,2.00
2024-05-09T15:38:03.585Z,1.88
2024-05-09T15:40:38.366Z,2.05
2024-05-09T15:43:10.325Z,1.98
2024-05-09T15:45:40.264Z,2.00
2024-05-09T15:48:09.753Z,1.80
2024-05-09T15:50:40.780Z,1.90
2024-05-09T15:53:11.944Z,2.00
2024-05-09T15:55:39.985Z,2.00
2024-05-09T15:58:07.860Z,1.90
2024-05-09T16:00:39.790Z,2.40
2024-05-09T16:03:11.288Z,1.77
2024-05-09T16:05:39.489Z,1.90
2024-05-09T16:08:08.009Z,1.80
2024-05-09T16:10:36.731Z,1.67
2024-05-09T16:13:05.160Z,1.95
2024-05-09T16:15:32.833Z,2.38
2024-05-09T16:18:01.180Z,1.90
2024-05-09T16:20:38.015Z,1.92
2024-05-09T16:23:08.919Z,2.10
2024-05-09T16:25:37.264Z,1.67
2024-05-09T16:28:08.827Z,2.00
2024-05-09T16:30:40.037Z,2.05
2024-05-09T16:33:08.850Z,1.90
2024-05-09T16:35:37.801Z,2.08
2024-05-09T16:38:06.330Z,1.90
2024-05-09T16:40:38.447Z,1.77
2024-05-09T16:43:10.966Z,1.70
2024-05-09T16:45:40.985Z,1.70
2024-05-09T16:48:09.070Z,1.95
2024-05-09T16:50:37.017Z,2.10
2024-05-09T16:53:05.963Z,2.40
2024-05-09T16:55:34.732Z,2.03
2024-05-09T16:58:03.207Z,1.70
2024-05-09T17:00:39.036Z,2.20
2024-05-09T17:03:12.993Z,1.80
2024-05-09T17:05:41.928Z,1.73
2024-05-09T17:08:09.885Z,1.80
2024-05-09T17:10:37.438Z,2.10
2024-05-09T17:13:06.894Z,2.17
2024-05-09T17:15:37.257Z,2.08
2024-05-09T17:18:06.755Z,1.90
2024-05-09T17:20:36.774Z,1.90
2024-05-09T17:23:13.144Z,1.90
2024-05-09T17:25:42.292Z,1.67
2024-05-09T17:28:10.681Z,1.85
2024-05-09T17:30:40.101Z,1.92
2024-05-09T17:33:10.421Z,2.08
2024-05-09T17:35:38.981Z,1.60
2024-05-09T17:38:07.863Z,1.70
2024-05-09T17:40:37.476Z,1.77
2024-05-09T17:43:09.287Z,1.90
2024-05-09T17:45:40.373Z,2.20
2024-05-09T17:48:10.353Z,2.15
2024-05-09T17:50:39.737Z,2.00
2024-05-09T17:53:09.068Z,2.00
2024-05-09T17:55:36.818Z,1.58
2024-05-09T17:58:05.534Z,2.00
2024-05-09T18:00:39.111Z,2.42
2024-05-09T18:03:12.443Z,2.40
2024-05-09T18:05:41.343Z,2.22
2024-05-09T18:08:09.359Z,1.92
2024-05-09T18:10:39.378Z,1.98
2024-05-09T18:13:09.118Z,2.05
2024-05-09T18:15:37.499Z,1.92
2024-05-09T18:18:06.027Z,2.10
2024-05-09T18:20:41.716Z,2.22
2024-05-09T18:23:14.159Z,2.08
2024-05-09T18:25:42.605Z,2.20
2024-05-09T18:28:10.447Z,2.88
2024-05-09T18:30:38.276Z,2.45
2024-05-09T18:33:07.847Z,2.50
2024-05-09T18:35:36.775Z,2.28
2024-05-09T18:38:05.743Z,2.40
2024-05-09T18:40:36.472Z,2.22
2024-05-09T18:43:08.007Z,2.30
2024-05-09T18:45:37.975Z,2.15
2024-05-09T18:48:07.509Z,2.28
2024-05-09T18:50:38.960Z,2.42
2024-05-09T18:53:11.038Z,2.00
2024-05-09T18:55:39.511Z,2.22
2024-05-09T18:58:07.404Z,2.47
2024-05-09T19:00:38.496Z,2.60
2024-05-09T19:03:11.548Z,2.53
2024-05-09T19:05:42.771Z,2.30
2024-05-09T19:08:11.332Z,2.35
2024-05-09T19:10:39.974Z,2.70
2024-05-09T19:13:12.059Z,2.65
2024-05-09T19:15:41.975Z,2.63
2024-05-09T19:18:10.606Z,2.67
2024-05-09T19:20:39.075Z,2.35
2024-05-09T19:23:07.503Z,2.60
2024-05-09T19:25:35.992Z,2.50
2024-05-09T19:28:07.397Z,3.10
2024-05-09T19:30:40.098Z,2.72
2024-05-09T19:33:12.460Z,2.55
2024-05-09T19:35:41.214Z,2.78
2024-05-09T19:38:08.694Z,2.63
2024-05-09T19:40:36.374Z,3.22
2024-05-09T19:43:05.988Z,2.75
2024-05-09T19:45:35.474Z,2.70
2024-05-09T19:48:04.896Z,2.25
2024-05-09T19:50:40.876Z,2.78
2024-05-09T19:53:12.127Z,2.63
2024-05-09T19:55:40.394Z,2.58
2024-05-09T19:58:09.961Z,2.72
2024-05-09T20:00:41.399Z,2.75
2024-05-09T20:03:12.635Z,2.35
2024-05-09T20:05:42.504Z,3.15
2024-05-09T20:08:10.029Z,3.08
2024-05-09T20:10:37.854Z,3.00
2024-05-09T20:13:07.017Z,2.70
2024-05-09T20:15:36.645Z,2.97
2024-05-09T20:18:05.527Z,2.95
2024-05-09T20:20:39.363Z,3.20
2024-05-09T20:23:12.541Z,3.10
2024-05-09T20:25:40.876Z,3.15
2024-05-09T20:28:08.429Z,2.95
2024-05-09T20:30:36.726Z,3.20
2024-05-09T20:33:07.637Z,3.30
2024-05-09T20:35:36.551Z,3.53
2024-05-09T20:38:04.476Z,3.00
2024-05-09T20:40:36.919Z,3.00
2024-05-09T20:43:08.044Z,3.60
2024-05-09T20:45:36.036Z,3.75
2024-05-09T20:48:03.739Z,3.80
2024-05-09T20:50:38.111Z,5.30
2024-05-09T20:53:13.823Z,10.57
2024-05-09T20:55:43.523Z,30.07
2024-05-09T20:58:11.755Z,32.63
2024-05-09T21:00:42.941Z,23.55
2024-05-09T21:03:14.445Z,27.17
2024-05-09T21:05:43.207Z,29.35
2024-05-09T21:08:10.713Z,20.17
2024-05-09T21:10:38.565Z,13.80
2024-05-09T21:13:07.025Z,11.95
2024-05-09T21:15:35.643Z,9.95
2024-05-09T21:18:04.409Z,11.88
2024-05-09T21:20:34.960Z,9.35
2024-05-09T21:23:03.538Z,6.30
2024-05-09T21:25:32.441Z,5.55
2024-05-09T21:28:01.027Z,5.95
2024-05-09T21:30:38.394Z,5.75
2024-05-09T21:33:11.043Z,6.22
2024-05-09T21:35:40.517Z,6.90
2024-05-09T21:38:08.213Z,6.47
2024-05-09T21:40:37.047Z,6.20
2024-05-09T21:43:07.180Z,6.28
2024-05-09T21:45:35.718Z,5.30
2024-05-09T21:48:04.844Z,5.13
2024-05-09T21:50:39.361Z,5.57
2024-05-09T21:53:10.014Z,5.50
2024-05-09T21:55:37.726Z,6.20
2024-05-09T21:58:05.595Z,6.45
2024-05-09T22:00:38.219Z,7.15
2024-05-09T22:03:08.787Z,7.30
2024-05-09T22:05:38.165Z,6.35
2024-05-09T22:08:06.261Z,6.20
2024-05-09T22:10:36.149Z,5.80
2024-05-09T22:13:07.042Z,5.95
2024-05-09T22:15:37.285Z,5.35
2024-05-09T22:18:06.404Z,5.45
2024-05-09T22:20:37.818Z,5.75
2024-05-09T22:23:07.669Z,5.57
2024-05-09T22:25:35.630Z,6.07
2024-05-09T22:28:03.617Z,5.93
2024-05-09T22:30:36.173Z,5.72
2024-05-09T22:33:09.721Z,5.75
2024-05-09T22:35:39.135Z,5.45
2024-05-09T22:38:06.947Z,5.55
2024-05-09T22:40:44.927Z,6.05
2024-05-09T22:43:24.735Z,6.22
2024-05-09T22:45:54.965Z,5.75
2024-05-09T22:48:24.268Z,5.60
2024-05-09T22:50:52.709Z,6.13
2024-05-09T22:53:22.820Z,5.78
2024-05-09T22:55:50.200Z,5.60
2024-05-09T22:58:18.220Z,5.32
2024-05-09T23:00:45.823Z,6.13
2024-05-09T23:03:16.629Z,5.47
2024-05-09T23:05:44.128Z,6.13
2024-05-09T23:08:11.422Z,6.15
2024-05-09T23:10:38.865Z,6.00
2024-05-09T23:13:08.001Z,6.13
2024-05-09T23:15:38.726Z,6.10
2024-05-09T23:18:07.271Z,6.25
2024-05-09T23:20:38.643Z,5.85
2024-05-09T23:23:09.183Z,6.28
2024-05-09T23:25:37.662Z,6.22
2024-05-09T23:28:05.681Z,7.35
2024-05-09T23:30:38.019Z,6.55
2024-05-09T23:33:09.448Z,7.60
2024-05-09T23:35:37.167Z,7.38
2024-05-09T23:38:04.803Z,7.03
2024-05-09T23:43:03.325Z,8.50
2024-05-09T23:45:31.208Z,7.85
2024-05-09T23:47:58.647Z,9.15
2024-05-09T23:50:33.694Z,8.63
2024-05-09T23:53:04.783Z,7.65
2024-05-09T23:55:32.639Z,7.43
2024-05-09T23:58:00.556Z,6.40
